sensor_id;sensor_type;location;lat;lon;timestamp;P1;durP1;ratioP1;P2;durP2;ratioP2
72711;SDS011;60828;40.292;17.998;2022-07-29T00:01:20;10.52;;;6.65;;
72711;SDS011;60828;40.292;17.998;2022-07-29T00:03:51;11.77;;;6.18;;
72711;SDS011;60828;40.292;17.998;2022-07-29T00:06:16;10.85;;;6.90;;
72711;SDS011;60828;40.292;17.998;2022-07-29T00:08:42;11.50;;;6.70;;
72711;SDS011;60828;40.292;17.998;2022-07-29T00:11:11;10.20;;;6.35;;
72711;SDS011;60828;40.292;17.998;2022-07-29T00:13:42;10.47;;;6.70;;
72711;SDS011;60828;40.292;17.998;2022-07-29T00:16:07;11.70;;;6.10;;
72711;SDS011;60828;40.292;17.998;2022-07-29T00:18:33;9.00;;;6.07;;
72711;SDS011;60828;40.292;17.998;2022-07-29T00:21:01;11.63;;;6.37;;
72711;SDS011;60828;40.292;17.998;2022-07-29T00:23:26;9.65;;;6.63;;
72711;SDS011;60828;40.292;17.998;2022-07-29T00:25:52;9.83;;;5.80;;
72711;SDS011;60828;40.292;17.998;2022-07-29T00:28:18;13.68;;;6.30;;
72711;SDS011;60828;40.292;17.998;2022-07-29T00:30:43;11.83;;;6.30;;
72711;SDS011;60828;40.292;17.998;2022-07-29T00:33:10;11.43;;;6.50;;
72711;SDS011;60828;40.292;17.998;2022-07-29T00:35:36;10.20;;;6.40;;
72711;SDS011;60828;40.292;17.998;2022-07-29T00:38:12;10.98;;;6.70;;
72711;SDS011;60828;40.292;17.998;2022-07-29T00:40:38;13.73;;;7.13;;
72711;SDS011;60828;40.292;17.998;2022-07-29T00:43:04;13.23;;;7.53;;
72711;SDS011;60828;40.292;17.998;2022-07-29T00:45:30;11.48;;;6.95;;
72711;SDS011;60828;40.292;17.998;2022-07-29T00:47:59;12.23;;;7.07;;
72711;SDS011;60828;40.292;17.998;2022-07-29T00:50:25;13.03;;;7.17;;
72711;SDS011;60828;40.292;17.998;2022-07-29T00:52:51;10.13;;;6.90;;
72711;SDS011;60828;40.292;17.998;2022-07-29T00:55:22;10.52;;;6.50;;
72711;SDS011;60828;40.292;17.998;2022-07-29T00:57:48;12.23;;;7.20;;
72711;SDS011;60828;40.292;17.998;2022-07-29T01:00:18;12.60;;;6.95;;
72711;SDS011;60828;40.292;17.998;2022-07-29T01:02:46;11.02;;;6.85;;
72711;SDS011;60828;40.292;17.998;2022-07-29T01:05:19;11.15;;;6.55;;
72711;SDS011;60828;40.292;17.998;2022-07-29T01:07:46;10.02;;;6.82;;
72711;SDS011;60828;40.292;17.998;2022-07-29T01:10:15;9.00;;;6.50;;
72711;SDS011;60828;40.292;17.998;2022-07-29T01:12:41;11.48;;;6.75;;
72711;SDS011;60828;40.292;17.998;2022-07-29T01:15:09;9.95;;;6.45;;
72711;SDS011;60828;40.292;17.998;2022-07-29T01:17:38;11.50;;;7.05;;
72711;SDS011;60828;40.292;17.998;2022-07-29T01:28:39;11.73;;;7.22;;
72711;SDS011;60828;40.292;17.998;2022-07-29T01:31:08;11.00;;;7.10;;
72711;SDS011;60828;40.292;17.998;2022-07-29T01:33:37;11.80;;;7.20;;
72711;SDS011;60828;40.292;17.998;2022-07-29T01:36:26;13.00;;;7.03;;
72711;SDS011;60828;40.292;17.998;2022-07-29T01:39:02;10.90;;;6.70;;
72711;SDS011;60828;40.292;17.998;2022-07-29T01:41:37;11.85;;;6.97;;
72711;SDS011;60828;40.292;17.998;2022-07-29T01:44:20;12.75;;;7.53;;
72711;SDS011;60828;40.292;17.998;2022-07-29T01:46:56;13.02;;;6.80;;
72711;SDS011;60828;40.292;17.998;2022-07-29T01:49:25;13.17;;;7.37;;
72711;SDS011;60828;40.292;17.998;2022-07-29T01:51:54;12.88;;;7.35;;
72711;SDS011;60828;40.292;17.998;2022-07-29T01:54:35;12.45;;;6.85;;
72711;SDS011;60828;40.292;17.998;2022-07-29T01:57:07;16.15;;;8.18;;
72711;SDS011;60828;40.292;17.998;2022-07-29T01:59:36;14.93;;;7.03;;
72711;SDS011;60828;40.292;17.998;2022-07-29T02:02:03;11.53;;;6.47;;
72711;SDS011;60828;40.292;17.998;2022-07-29T02:04:31;14.57;;;7.18;;
72711;SDS011;60828;40.292;17.998;2022-07-29T02:07:03;11.75;;;7.13;;
72711;SDS011;60828;40.292;17.998;2022-07-29T02:09:31;12.02;;;6.72;;
72711;SDS011;60828;40.292;17.998;2022-07-29T02:12:00;11.43;;;6.88;;
72711;SDS011;60828;40.292;17.998;2022-07-29T02:14:28;12.83;;;6.60;;
72711;SDS011;60828;40.292;17.998;2022-07-29T02:16:58;11.30;;;6.97;;
72711;SDS011;60828;40.292;17.998;2022-07-29T02:19:25;11.60;;;7.45;;
72711;SDS011;60828;40.292;17.998;2022-07-29T02:21:53;12.80;;;6.55;;
72711;SDS011;60828;40.292;17.998;2022-07-29T02:24:22;11.07;;;6.93;;
72711;SDS011;60828;40.292;17.998;2022-07-29T02:26:49;10.27;;;6.73;;
72711;SDS011;60828;40.292;17.998;2022-07-29T02:29:16;12.13;;;7.00;;
72711;SDS011;60828;40.292;17.998;2022-07-29T02:31:44;13.48;;;7.68;;
72711;SDS011;60828;40.292;17.998;2022-07-29T02:34:12;12.43;;;7.43;;
72711;SDS011;60828;40.292;17.998;2022-07-29T02:36:39;13.07;;;7.47;;
72711;SDS011;60828;40.292;17.998;2022-07-29T02:39:07;11.60;;;6.97;;
72711;SDS011;60828;40.292;17.998;2022-07-29T02:41:35;11.90;;;7.40;;
72711;SDS011;60828;40.292;17.998;2022-07-29T02:44:09;11.02;;;7.25;;
72711;SDS011;60828;40.292;17.998;2022-07-29T02:46:46;13.20;;;8.02;;
72711;SDS011;60828;40.292;17.998;2022-07-29T02:50:31;12.02;;;7.45;;
72711;SDS011;60828;40.292;17.998;2022-07-29T02:52:51;13.07;;;7.40;;
72711;SDS011;60828;40.292;17.998;2022-07-29T02:55:56;13.20;;;7.93;;
72711;SDS011;60828;40.292;17.998;2022-07-29T03:00:55;15.48;;;7.38;;
72711;SDS011;60828;40.292;17.998;2022-07-29T03:03:22;12.05;;;7.72;;
72711;SDS011;60828;40.292;17.998;2022-07-29T03:05:57;12.70;;;6.93;;
72711;SDS011;60828;40.292;17.998;2022-07-29T03:08:24;10.30;;;7.28;;
72711;SDS011;60828;40.292;17.998;2022-07-29T03:10:51;11.30;;;7.35;;
72711;SDS011;60828;40.292;17.998;2022-07-29T03:13:18;14.13;;;7.25;;
72711;SDS011;60828;40.292;17.998;2022-07-29T03:15:45;12.43;;;7.28;;
72711;SDS011;60828;40.292;17.998;2022-07-29T03:18:11;13.97;;;7.53;;
72711;SDS011;60828;40.292;17.998;2022-07-29T03:20:38;12.50;;;7.35;;
72711;SDS011;60828;40.292;17.998;2022-07-29T03:23:04;24.40;;;8.02;;
72711;SDS011;60828;40.292;17.998;2022-07-29T03:25:30;14.13;;;7.70;;
72711;SDS011;60828;40.292;17.998;2022-07-29T03:27:56;15.00;;;7.38;;
72711;SDS011;60828;40.292;17.998;2022-07-29T03:30:22;14.38;;;7.50;;
72711;SDS011;60828;40.292;17.998;2022-07-29T03:32:48;14.13;;;7.38;;
72711;SDS011;60828;40.292;17.998;2022-07-29T03:35:16;12.47;;;7.10;;
72711;SDS011;60828;40.292;17.998;2022-07-29T03:37:43;14.65;;;8.25;;
72711;SDS011;60828;40.292;17.998;2022-07-29T03:40:10;14.30;;;7.80;;
72711;SDS011;60828;40.292;17.998;2022-07-29T03:42:39;12.40;;;7.93;;
72711;SDS011;60828;40.292;17.998;2022-07-29T03:45:12;12.00;;;7.57;;
72711;SDS011;60828;40.292;17.998;2022-07-29T03:47:42;15.27;;;8.02;;
72711;SDS011;60828;40.292;17.998;2022-07-29T03:50:17;15.25;;;8.45;;
72711;SDS011;60828;40.292;17.998;2022-07-29T03:52:45;12.85;;;8.00;;
72711;SDS011;60828;40.292;17.998;2022-07-29T03:55:12;12.70;;;8.48;;
72711;SDS011;60828;40.292;17.998;2022-07-29T03:57:39;14.60;;;8.53;;
72711;SDS011;60828;40.292;17.998;2022-07-29T04:00:06;16.05;;;8.13;;
72711;SDS011;60828;40.292;17.998;2022-07-29T04:02:32;14.80;;;8.10;;
72711;SDS011;60828;40.292;17.998;2022-07-29T04:04:58;17.08;;;8.82;;
72711;SDS011;60828;40.292;17.998;2022-07-29T04:07:24;12.55;;;7.80;;
72711;SDS011;60828;40.292;17.998;2022-07-29T04:09:50;32.17;;;9.93;;
72711;SDS011;60828;40.292;17.998;2022-07-29T04:12:16;18.00;;;8.48;;
72711;SDS011;60828;40.292;17.998;2022-07-29T04:14:43;14.60;;;8.18;;
72711;SDS011;60828;40.292;17.998;2022-07-29T04:17:08;13.33;;;8.40;;
72711;SDS011;60828;40.292;17.998;2022-07-29T04:19:34;16.53;;;8.50;;
72711;SDS011;60828;40.292;17.998;2022-07-29T04:21:59;20.13;;;8.48;;
72711;SDS011;60828;40.292;17.998;2022-07-29T04:24:26;15.10;;;8.40;;
72711;SDS011;60828;40.292;17.998;2022-07-29T04:26:52;14.20;;;8.43;;
72711;SDS011;60828;40.292;17.998;2022-07-29T04:29:18;16.75;;;8.27;;
72711;SDS011;60828;40.292;17.998;2022-07-29T04:31:44;13.80;;;8.82;;
72711;SDS011;60828;40.292;17.998;2022-07-29T04:34:10;13.47;;;8.27;;
72711;SDS011;60828;40.292;17.998;2022-07-29T04:36:38;13.80;;;9.10;;
72711;SDS011;60828;40.292;17.998;2022-07-29T04:39:04;16.93;;;9.00;;
72711;SDS011;60828;40.292;17.998;2022-07-29T04:41:30;14.05;;;8.23;;
72711;SDS011;60828;40.292;17.998;2022-07-29T04:43:56;14.32;;;8.75;;
72711;SDS011;60828;40.292;17.998;2022-07-29T04:46:22;16.93;;;8.13;;
72711;SDS011;60828;40.292;17.998;2022-07-29T04:48:49;20.58;;;8.13;;
72711;SDS011;60828;40.292;17.998;2022-07-29T04:51:14;21.30;;;8.20;;
72711;SDS011;60828;40.292;17.998;2022-07-29T04:53:41;18.20;;;7.55;;
72711;SDS011;60828;40.292;17.998;2022-07-29T04:56:07;19.33;;;7.90;;
72711;SDS011;60828;40.292;17.998;2022-07-29T04:58:34;13.18;;;8.07;;
72711;SDS011;60828;40.292;17.998;2022-07-29T05:01:00;16.63;;;7.97;;
72711;SDS011;60828;40.292;17.998;2022-07-29T05:03:25;22.57;;;9.83;;
72711;SDS011;60828;40.292;17.998;2022-07-29T05:05:51;24.97;;;14.17;;
72711;SDS011;60828;40.292;17.998;2022-07-29T05:08:16;64.65;;;30.33;;
72711;SDS011;60828;40.292;17.998;2022-07-29T05:10:51;38.63;;;21.67;;
72711;SDS011;60828;40.292;17.998;2022-07-29T05:13:17;41.95;;;21.27;;
72711;SDS011;60828;40.292;17.998;2022-07-29T05:15:42;38.00;;;20.63;;
72711;SDS011;60828;40.292;17.998;2022-07-29T05:18:08;39.70;;;17.95;;
72711;SDS011;60828;40.292;17.998;2022-07-29T05:20:34;26.00;;;12.53;;
72711;SDS011;60828;40.292;17.998;2022-07-29T05:23:02;25.52;;;11.63;;
72711;SDS011;60828;40.292;17.998;2022-07-29T05:25:28;21.15;;;9.43;;
72711;SDS011;60828;40.292;17.998;2022-07-29T05:27:54;14.10;;;7.70;;
72711;SDS011;60828;40.292;17.998;2022-07-29T05:30:20;21.35;;;9.60;;
72711;SDS011;60828;40.292;17.998;2022-07-29T05:32:46;19.13;;;8.35;;
72711;SDS011;60828;40.292;17.998;2022-07-29T05:35:12;15.37;;;8.03;;
72711;SDS011;60828;40.292;17.998;2022-07-29T05:37:38;17.70;;;7.77;;
72711;SDS011;60828;40.292;17.998;2022-07-29T05:40:04;16.05;;;8.15;;
72711;SDS011;60828;40.292;17.998;2022-07-29T05:42:30;16.80;;;6.80;;
72711;SDS011;60828;40.292;17.998;2022-07-29T05:44:55;13.43;;;7.10;;
72711;SDS011;60828;40.292;17.998;2022-07-29T05:47:21;13.93;;;7.17;;
72711;SDS011;60828;40.292;17.998;2022-07-29T05:49:48;9.73;;;6.55;;
72711;SDS011;60828;40.292;17.998;2022-07-29T05:52:13;10.07;;;6.05;;
72711;SDS011;60828;40.292;17.998;2022-07-29T05:54:39;10.65;;;6.47;;
72711;SDS011;60828;40.292;17.998;2022-07-29T05:57:05;10.10;;;6.23;;
72711;SDS011;60828;40.292;17.998;2022-07-29T05:59:31;10.33;;;5.70;;
72711;SDS011;60828;40.292;17.998;2022-07-29T06:02:00;9.65;;;5.30;;
72711;SDS011;60828;40.292;17.998;2022-07-29T06:04:26;10.40;;;5.60;;
72711;SDS011;60828;40.292;17.998;2022-07-29T06:06:51;11.13;;;5.70;;
72711;SDS011;60828;40.292;17.998;2022-07-29T06:09:17;14.20;;;5.40;;
72711;SDS011;60828;40.292;17.998;2022-07-29T06:11:42;9.60;;;6.10;;
72711;SDS011;60828;40.292;17.998;2022-07-29T06:18:58;14.53;;;6.13;;
72711;SDS011;60828;40.292;17.998;2022-07-29T06:23:49;11.63;;;5.23;;
72711;SDS011;60828;40.292;17.998;2022-07-29T06:26:15;11.87;;;5.47;;
72711;SDS011;60828;40.292;17.998;2022-07-29T06:28:41;8.20;;;5.22;;
72711;SDS011;60828;40.292;17.998;2022-07-29T06:31:06;9.57;;;5.30;;
72711;SDS011;60828;40.292;17.998;2022-07-29T06:33:32;9.02;;;5.03;;
72711;SDS011;60828;40.292;17.998;2022-07-29T06:35:58;9.02;;;4.72;;
72711;SDS011;60828;40.292;17.998;2022-07-29T06:38:24;11.70;;;5.40;;
72711;SDS011;60828;40.292;17.998;2022-07-29T06:40:50;11.50;;;5.20;;
72711;SDS011;60828;40.292;17.998;2022-07-29T06:43:25;10.27;;;5.05;;
72711;SDS011;60828;40.292;17.998;2022-07-29T06:45:54;9.88;;;4.90;;
72711;SDS011;60828;40.292;17.998;2022-07-29T06:48:19;10.33;;;5.10;;
72711;SDS011;60828;40.292;17.998;2022-07-29T06:50:44;9.63;;;5.23;;
72711;SDS011;60828;40.292;17.998;2022-07-29T06:53:10;10.18;;;5.15;;
72711;SDS011;60828;40.292;17.998;2022-07-29T06:55:36;11.13;;;4.90;;
72711;SDS011;60828;40.292;17.998;2022-07-29T06:58:02;11.05;;;5.20;;
72711;SDS011;60828;40.292;17.998;2022-07-29T07:00:27;9.50;;;4.68;;
72711;SDS011;60828;40.292;17.998;2022-07-29T07:02:53;8.40;;;4.40;;
72711;SDS011;60828;40.292;17.998;2022-07-29T07:05:18;8.50;;;4.40;;
72711;SDS011;60828;40.292;17.998;2022-07-29T07:07:44;7.60;;;4.70;;
72711;SDS011;60828;40.292;17.998;2022-07-29T07:10:09;7.88;;;4.80;;
72711;SDS011;60828;40.292;17.998;2022-07-29T07:12:35;8.20;;;4.60;;
72711;SDS011;60828;40.292;17.998;2022-07-29T07:15:00;9.10;;;5.17;;
72711;SDS011;60828;40.292;17.998;2022-07-29T07:17:26;7.45;;;5.50;;
72711;SDS011;60828;40.292;17.998;2022-07-29T07:19:51;8.80;;;5.47;;
72711;SDS011;60828;40.292;17.998;2022-07-29T07:22:17;9.23;;;5.50;;
72711;SDS011;60828;40.292;17.998;2022-07-29T07:24:42;10.23;;;4.90;;
72711;SDS011;60828;40.292;17.998;2022-07-29T07:27:08;6.93;;;4.10;;
72711;SDS011;60828;40.292;17.998;2022-07-29T07:29:33;9.13;;;4.53;;
72711;SDS011;60828;40.292;17.998;2022-07-29T07:31:59;6.18;;;4.07;;
72711;SDS011;60828;40.292;17.998;2022-07-29T07:39:15;7.83;;;4.70;;
72711;SDS011;60828;40.292;17.998;2022-07-29T07:41:40;7.10;;;4.80;;
72711;SDS011;60828;40.292;17.998;2022-07-29T07:44:06;8.70;;;3.97;;
72711;SDS011;60828;40.292;17.998;2022-07-29T07:46:31;7.70;;;4.50;;
72711;SDS011;60828;40.292;17.998;2022-07-29T07:48:57;7.25;;;3.80;;
72711;SDS011;60828;40.292;17.998;2022-07-29T07:51:22;7.27;;;4.27;;
72711;SDS011;60828;40.292;17.998;2022-07-29T07:53:48;8.83;;;4.07;;
72711;SDS011;60828;40.292;17.998;2022-07-29T07:56:15;8.93;;;4.35;;
72711;SDS011;60828;40.292;17.998;2022-07-29T07:58:41;7.10;;;3.95;;
72711;SDS011;60828;40.292;17.998;2022-07-29T08:01:07;6.95;;;3.85;;
72711;SDS011;60828;40.292;17.998;2022-07-29T08:05:59;9.18;;;4.70;;
72711;SDS011;60828;40.292;17.998;2022-07-29T08:08:24;7.60;;;3.87;;
72711;SDS011;60828;40.292;17.998;2022-07-29T08:10:50;6.70;;;3.63;;
72711;SDS011;60828;40.292;17.998;2022-07-29T08:13:19;6.03;;;3.67;;
72711;SDS011;60828;40.292;17.998;2022-07-29T08:15:46;7.35;;;3.80;;
72711;SDS011;60828;40.292;17.998;2022-07-29T08:18:12;7.80;;;4.20;;
72711;SDS011;60828;40.292;17.998;2022-07-29T08:20:38;10.63;;;3.80;;
72711;SDS011;60828;40.292;17.998;2022-07-29T08:23:05;7.30;;;3.53;;
72711;SDS011;60828;40.292;17.998;2022-07-29T08:25:37;9.40;;;3.80;;
72711;SDS011;60828;40.292;17.998;2022-07-29T08:28:04;9.10;;;4.10;;
72711;SDS011;60828;40.292;17.998;2022-07-29T08:30:30;7.10;;;3.50;;
72711;SDS011;60828;40.292;17.998;2022-07-29T08:32:57;9.18;;;4.10;;
72711;SDS011;60828;40.292;17.998;2022-07-29T08:35:23;5.85;;;3.40;;
72711;SDS011;60828;40.292;17.998;2022-07-29T08:37:50;6.57;;;3.10;;
72711;SDS011;60828;40.292;17.998;2022-07-29T08:40:16;7.53;;;3.40;;
72711;SDS011;60828;40.292;17.998;2022-07-29T08:45:07;5.53;;;3.70;;
72711;SDS011;60828;40.292;17.998;2022-07-29T08:47:34;6.53;;;3.70;;
72711;SDS011;60828;40.292;17.998;2022-07-29T08:50:03;6.75;;;3.92;;
72711;SDS011;60828;40.292;17.998;2022-07-29T08:59:49;7.40;;;3.70;;
72711;SDS011;60828;40.292;17.998;2022-07-29T09:02:21;5.60;;;3.30;;
72711;SDS011;60828;40.292;17.998;2022-07-29T09:04:48;5.57;;;3.53;;
72711;SDS011;60828;40.292;17.998;2022-07-29T09:09:41;9.10;;;3.53;;
72711;SDS011;60828;40.292;17.998;2022-07-29T09:35:20;10.95;;;4.50;;
72711;SDS011;60828;40.292;17.998;2022-07-29T09:37:47;6.65;;;4.00;;
72711;SDS011;60828;40.292;17.998;2022-07-29T09:40:17;8.07;;;4.40;;
72711;SDS011;60828;40.292;17.998;2022-07-29T09:42:47;6.40;;;3.87;;
72711;SDS011;60828;40.292;17.998;2022-07-29T09:45:13;9.32;;;3.80;;
72711;SDS011;60828;40.292;17.998;2022-07-29T09:47:54;9.75;;;3.55;;
72711;SDS011;60828;40.292;17.998;2022-07-29T09:50:22;8.20;;;3.50;;
72711;SDS011;60828;40.292;17.998;2022-07-29T09:52:59;6.50;;;4.20;;
72711;SDS011;60828;40.292;17.998;2022-07-29T09:55:24;6.77;;;3.70;;
72711;SDS011;60828;40.292;17.998;2022-07-29T09:57:50;9.87;;;4.10;;
72711;SDS011;60828;40.292;17.998;2022-07-29T10:00:17;10.23;;;3.90;;
72711;SDS011;60828;40.292;17.998;2022-07-29T10:02:45;7.97;;;3.88;;
72711;SDS011;60828;40.292;17.998;2022-07-29T10:05:21;7.32;;;4.20;;
72711;SDS011;60828;40.292;17.998;2022-07-29T10:07:55;7.75;;;3.60;;
72711;SDS011;60828;40.292;17.998;2022-07-29T10:10:25;11.48;;;4.53;;
72711;SDS011;60828;40.292;17.998;2022-07-29T10:12:53;8.10;;;3.57;;
72711;SDS011;60828;40.292;17.998;2022-07-29T10:15:24;9.82;;;4.07;;
72711;SDS011;60828;40.292;17.998;2022-07-29T10:17:52;7.00;;;3.97;;
72711;SDS011;60828;40.292;17.998;2022-07-29T10:20:20;9.43;;;4.20;;
72711;SDS011;60828;40.292;17.998;2022-07-29T10:22:47;7.78;;;3.80;;
72711;SDS011;60828;40.292;17.998;2022-07-29T10:25:13;6.67;;;4.17;;
72711;SDS011;60828;40.292;17.998;2022-07-29T10:27:40;8.13;;;4.32;;
72711;SDS011;60828;40.292;17.998;2022-07-29T10:30:06;8.27;;;3.70;;
72711;SDS011;60828;40.292;17.998;2022-07-29T10:35:24;6.10;;;3.80;;
72711;SDS011;60828;40.292;17.998;2022-07-29T10:38:30;5.57;;;3.30;;
72711;SDS011;60828;40.292;17.998;2022-07-29T10:44:22;7.38;;;3.67;;
72711;SDS011;60828;40.292;17.998;2022-07-29T10:46:51;7.05;;;3.50;;
72711;SDS011;60828;40.292;17.998;2022-07-29T10:49:20;6.38;;;3.33;;
72711;SDS011;60828;40.292;17.998;2022-07-29T10:57:33;6.45;;;3.97;;
72711;SDS011;60828;40.292;17.998;2022-07-29T11:05:14;9.83;;;4.47;;
72711;SDS011;60828;40.292;17.998;2022-07-29T11:10:48;5.95;;;3.55;;
72711;SDS011;60828;40.292;17.998;2022-07-29T11:16:08;7.45;;;3.95;;
72711;SDS011;60828;40.292;17.998;2022-07-29T11:18:34;8.47;;;3.27;;
72711;SDS011;60828;40.292;17.998;2022-07-29T11:20:59;10.93;;;3.10;;
72711;SDS011;60828;40.292;17.998;2022-07-29T11:23:32;7.10;;;3.67;;
72711;SDS011;60828;40.292;17.998;2022-07-29T11:29:20;7.33;;;3.40;;
72711;SDS011;60828;40.292;17.998;2022-07-29T11:31:45;6.43;;;3.42;;
72711;SDS011;60828;40.292;17.998;2022-07-29T11:34:25;7.45;;;3.50;;
72711;SDS011;60828;40.292;17.998;2022-07-29T11:39:45;6.20;;;3.40;;
72711;SDS011;60828;40.292;17.998;2022-07-29T11:45:01;6.20;;;3.63;;
72711;SDS011;60828;40.292;17.998;2022-07-29T11:47:51;5.15;;;3.05;;
72711;SDS011;60828;40.292;17.998;2022-07-29T11:50:39;6.68;;;3.50;;
72711;SDS011;60828;40.292;17.998;2022-07-29T11:53:11;8.73;;;3.60;;
72711;SDS011;60828;40.292;17.998;2022-07-29T11:55:38;8.13;;;3.63;;
72711;SDS011;60828;40.292;17.998;2022-07-29T11:58:05;12.63;;;4.00;;
72711;SDS011;60828;40.292;17.998;2022-07-29T12:00:35;7.70;;;3.80;;
72711;SDS011;60828;40.292;17.998;2022-07-29T12:03:04;6.25;;;4.05;;
72711;SDS011;60828;40.292;17.998;2022-07-29T12:05:37;6.20;;;3.67;;
72711;SDS011;60828;40.292;17.998;2022-07-29T12:08:40;7.63;;;3.53;;
72711;SDS011;60828;40.292;17.998;2022-07-29T12:11:04;10.10;;;3.50;;
72711;SDS011;60828;40.292;17.998;2022-07-29T12:13:41;7.38;;;3.80;;
72711;SDS011;60828;40.292;17.998;2022-07-29T12:16:06;7.73;;;3.83;;
72711;SDS011;60828;40.292;17.998;2022-07-29T12:18:32;8.93;;;3.60;;
72711;SDS011;60828;40.292;17.998;2022-07-29T12:21:01;6.68;;;3.55;;
72711;SDS011;60828;40.292;17.998;2022-07-29T12:23:30;7.80;;;3.72;;
72711;SDS011;60828;40.292;17.998;2022-07-29T12:25:59;7.68;;;3.50;;
72711;SDS011;60828;40.292;17.998;2022-07-29T12:28:25;8.00;;;4.10;;
72711;SDS011;60828;40.292;17.998;2022-07-29T12:30:50;7.57;;;3.40;;
72711;SDS011;60828;40.292;17.998;2022-07-29T12:33:27;4.82;;;3.60;;
72711;SDS011;60828;40.292;17.998;2022-07-29T12:35:54;7.33;;;3.43;;
72711;SDS011;60828;40.292;17.998;2022-07-29T12:38:22;8.32;;;3.92;;
72711;SDS011;60828;40.292;17.998;2022-07-29T12:40:48;11.60;;;3.72;;
72711;SDS011;60828;40.292;17.998;2022-07-29T12:45:47;5.68;;;3.10;;
72711;SDS011;60828;40.292;17.998;2022-07-29T12:53:25;7.78;;;3.10;;
72711;SDS011;60828;40.292;17.998;2022-07-29T14:10:10;7.43;;;3.53;;
72711;SDS011;60828;40.292;17.998;2022-07-29T14:12:35;7.07;;;3.20;;
72711;SDS011;60828;40.292;17.998;2022-07-29T14:15:01;6.05;;;3.20;;
72711;SDS011;60828;40.292;17.998;2022-07-29T14:17:27;5.00;;;2.97;;
72711;SDS011;60828;40.292;17.998;2022-07-29T14:19:53;5.55;;;3.17;;
72711;SDS011;60828;40.292;17.998;2022-07-29T14:22:18;8.87;;;3.27;;
72711;SDS011;60828;40.292;17.998;2022-07-29T14:24:44;9.70;;;3.47;;
72711;SDS011;60828;40.292;17.998;2022-07-29T14:27:09;7.43;;;3.33;;
72711;SDS011;60828;40.292;17.998;2022-07-29T14:29:35;7.45;;;3.58;;
72711;SDS011;60828;40.292;17.998;2022-07-29T14:32:01;6.23;;;3.07;;
72711;SDS011;60828;40.292;17.998;2022-07-29T14:34:27;5.80;;;3.30;;
72711;SDS011;60828;40.292;17.998;2022-07-29T14:36:53;8.03;;;3.50;;
72711;SDS011;60828;40.292;17.998;2022-07-29T14:39:21;7.18;;;3.35;;
72711;SDS011;60828;40.292;17.998;2022-07-29T14:41:48;6.22;;;3.15;;
72711;SDS011;60828;40.292;17.998;2022-07-29T14:44:14;9.20;;;3.28;;
72711;SDS011;60828;40.292;17.998;2022-07-29T14:46:40;5.72;;;3.35;;
72711;SDS011;60828;40.292;17.998;2022-07-29T14:49:05;7.07;;;3.20;;
72711;SDS011;60828;40.292;17.998;2022-07-29T14:51:31;7.33;;;3.40;;
72711;SDS011;60828;40.292;17.998;2022-07-29T14:53:57;6.72;;;3.53;;
72711;SDS011;60828;40.292;17.998;2022-07-29T14:56:23;6.40;;;3.40;;
72711;SDS011;60828;40.292;17.998;2022-07-29T14:58:48;7.72;;;3.30;;
72711;SDS011;60828;40.292;17.998;2022-07-29T15:01:14;6.72;;;3.30;;
72711;SDS011;60828;40.292;17.998;2022-07-29T15:03:39;7.77;;;3.60;;
72711;SDS011;60828;40.292;17.998;2022-07-29T15:06:05;7.80;;;3.53;;
72711;SDS011;60828;40.292;17.998;2022-07-29T15:08:30;8.38;;;3.40;;
72711;SDS011;60828;40.292;17.998;2022-07-29T15:10:56;6.40;;;3.10;;
72711;SDS011;60828;40.292;17.998;2022-07-29T15:13:24;6.47;;;3.20;;
72711;SDS011;60828;40.292;17.998;2022-07-29T15:15:50;9.02;;;3.10;;
72711;SDS011;60828;40.292;17.998;2022-07-29T15:18:16;6.30;;;2.90;;
72711;SDS011;60828;40.292;17.998;2022-07-29T15:20:42;6.78;;;3.70;;
72711;SDS011;60828;40.292;17.998;2022-07-29T15:23:07;7.53;;;3.10;;
72711;SDS011;60828;40.292;17.998;2022-07-29T15:25:34;9.60;;;3.55;;
72711;SDS011;60828;40.292;17.998;2022-07-29T15:28:01;7.38;;;3.00;;
72711;SDS011;60828;40.292;17.998;2022-07-29T15:30:32;6.43;;;3.30;;
72711;SDS011;60828;40.292;17.998;2022-07-29T15:32:58;11.05;;;2.92;;
72711;SDS011;60828;40.292;17.998;2022-07-29T15:35:24;9.07;;;3.20;;
72711;SDS011;60828;40.292;17.998;2022-07-29T15:37:49;6.37;;;3.10;;
72711;SDS011;60828;40.292;17.998;2022-07-29T15:40:15;6.53;;;3.40;;
72711;SDS011;60828;40.292;17.998;2022-07-29T15:42:40;5.27;;;2.73;;
72711;SDS011;60828;40.292;17.998;2022-07-29T15:45:06;9.93;;;3.35;;
72711;SDS011;60828;40.292;17.998;2022-07-29T15:47:34;8.67;;;3.23;;
72711;SDS011;60828;40.292;17.998;2022-07-29T15:50:00;6.35;;;3.30;;
72711;SDS011;60828;40.292;17.998;2022-07-29T15:52:25;9.95;;;3.03;;
72711;SDS011;60828;40.292;17.998;2022-07-29T15:54:51;6.47;;;3.30;;
72711;SDS011;60828;40.292;17.998;2022-07-29T15:57:20;7.68;;;3.45;;
72711;SDS011;60828;40.292;17.998;2022-07-29T15:59:46;7.32;;;3.15;;
72711;SDS011;60828;40.292;17.998;2022-07-29T16:02:12;8.20;;;3.23;;
72711;SDS011;60828;40.292;17.998;2022-07-29T16:04:37;6.80;;;3.23;;
72711;SDS011;60828;40.292;17.998;2022-07-29T16:07:03;6.68;;;3.30;;
72711;SDS011;60828;40.292;17.998;2022-07-29T16:09:28;8.90;;;3.20;;
72711;SDS011;60828;40.292;17.998;2022-07-29T16:11:54;8.60;;;3.23;;
72711;SDS011;60828;40.292;17.998;2022-07-29T16:14:20;8.15;;;3.05;;
72711;SDS011;60828;40.292;17.998;2022-07-29T16:16:46;5.70;;;3.10;;
72711;SDS011;60828;40.292;17.998;2022-07-29T16:19:12;8.80;;;3.70;;
72711;SDS011;60828;40.292;17.998;2022-07-29T16:21:37;6.18;;;3.10;;
72711;SDS011;60828;40.292;17.998;2022-07-29T16:24:04;6.67;;;3.23;;
72711;SDS011;60828;40.292;17.998;2022-07-29T16:26:30;7.10;;;4.18;;
72711;SDS011;60828;40.292;17.998;2022-07-29T16:28:56;6.53;;;3.60;;
72711;SDS011;60828;40.292;17.998;2022-07-29T16:31:21;5.70;;;3.27;;
72711;SDS011;60828;40.292;17.998;2022-07-29T16:33:56;7.40;;;4.30;;
72711;SDS011;60828;40.292;17.998;2022-07-29T16:36:22;7.13;;;3.88;;
72711;SDS011;60828;40.292;17.998;2022-07-29T16:38:48;8.47;;;3.90;;
72711;SDS011;60828;40.292;17.998;2022-07-29T16:41:14;6.07;;;3.30;;
72711;SDS011;60828;40.292;17.998;2022-07-29T16:43:39;7.97;;;3.33;;
72711;SDS011;60828;40.292;17.998;2022-07-29T16:46:08;7.60;;;3.05;;
72711;SDS011;60828;40.292;17.998;2022-07-29T16:48:34;7.23;;;3.60;;
72711;SDS011;60828;40.292;17.998;2022-07-29T16:51:03;7.22;;;3.28;;
72711;SDS011;60828;40.292;17.998;2022-07-29T16:53:29;5.65;;;3.67;;
72711;SDS011;60828;40.292;17.998;2022-07-29T16:55:55;7.97;;;3.20;;
72711;SDS011;60828;40.292;17.998;2022-07-29T16:58:20;8.60;;;3.47;;
72711;SDS011;60828;40.292;17.998;2022-07-29T17:00:45;6.53;;;3.23;;
72711;SDS011;60828;40.292;17.998;2022-07-29T17:03:11;6.37;;;3.80;;
72711;SDS011;60828;40.292;17.998;2022-07-29T17:05:36;7.43;;;3.30;;
72711;SDS011;60828;40.292;17.998;2022-07-29T17:08:02;7.83;;;3.30;;
72711;SDS011;60828;40.292;17.998;2022-07-29T17:10:27;10.13;;;3.40;;
72711;SDS011;60828;40.292;17.998;2022-07-29T17:12:54;8.52;;;3.53;;
72711;SDS011;60828;40.292;17.998;2022-07-29T17:15:19;7.00;;;3.17;;
72711;SDS011;60828;40.292;17.998;2022-07-29T17:17:45;7.87;;;3.20;;
72711;SDS011;60828;40.292;17.998;2022-07-29T17:20:12;6.13;;;3.33;;
72711;SDS011;60828;40.292;17.998;2022-07-29T17:22:38;6.20;;;3.50;;
72711;SDS011;60828;40.292;17.998;2022-07-29T17:25:04;6.60;;;3.20;;
72711;SDS011;60828;40.292;17.998;2022-07-29T17:27:31;8.35;;;3.25;;